Latest Weather Observations for Hobart Airport

IDT60801

Issued at 3:05 pm EDT Saturday 1 November 2014 (issued every 30 minutes, with the page automatically refreshed every 10 minutes)

About weather observations | Map of weather stations | Latest weather observations for TAS | Other Formats
Station Details ID: 094008 Name: HOBART AIRPORT Lat: -42.83 Lon: 147.50 Height: 4.0 m
Data from the previous 72 hours. | See also: Recent months at Hobart Airport
Date/Time
EDT
Temp
°C
App
Temp
°C
Dew
Point
Rel
Hum
%
Delta-T
°C
Wind Press
QNH
hPa
Press
MSL
hPa
Rain
since 9 am
mm
Dir
 
Spd
km/h
Gust
km/h
Spd
kts
Gust
kts
01/03:00pm 9.8 -2.2 4.7 70 2.3 W 57 83 31 45 993.9 993.9 0.0
01/02:57pm 9.8 -3.4 4.2 68 2.5 W 63 83 34 45 993.8 993.8 0.0
01/02:55pm 9.9 -4.6 3.8 66 2.7 W 69 83 37 45 993.5 993.5 0.0
01/02:53pm 11.6 1.0 3.0 55 3.8 W 48 80 26 43 993.1 993.1 0.0
01/02:51pm 14.0 3.1 -1.0 35 6.2 W 46 61 25 33 993.1 993.1 0.0
01/02:43pm 15.0 5.5 -1.0 33 6.7 WNW 39 57 21 31 992.8 992.8 0.0
01/02:30pm 15.1 5.4 0.5 37 6.3 W 41 56 22 30 992.7 992.7 0.0
01/02:04pm 15.2 5.2 1.0 38 6.1 WNW 43 61 23 33 992.6 992.6 0.0
01/02:00pm 15.8 7.1 2.0 39 6.2 WNW 37 54 20 29 992.6 992.6 0.0
01/01:33pm 14.5 5.7 3.6 48 5.0 WNW 39 57 21 31 992.4 992.4 0.0
01/01:30pm 15.2 6.1 3.8 46 5.2 WNW 41 57 22 31 992.5 992.5 0.0
01/01:01pm 16.6 8.8 2.6 39 6.3 WNW 33 54 18 29 992.1 992.1 0.0
01/01:00pm 16.9 9.3 2.8 39 6.5 WNW 32 48 17 26 992.1 992.1 0.0
01/12:50pm 16.0 7.7 2.3 39 6.1 WNW 35 54 19 29 991.9 991.9 0.0
01/12:30pm 16.4 8.1 2.0 38 6.4 WNW 35 44 19 24 991.8 991.8 0.0
01/12:00pm 17.2 9.4 2.0 36 6.9 W 32 50 17 27 991.7 991.7 0.0
01/11:51am 16.4 8.9 1.4 36 6.6 WNW 30 50 16 27 991.8 991.8 0.0
01/11:30am 16.1 7.6 1.2 36 6.5 WNW 35 52 19 28 991.6 991.6 0.0
01/11:03am 15.5 5.2 0.5 36 6.4 WNW 44 63 24 34 991.6 991.6 0.0
01/11:00am 15.6 4.6 1.0 37 6.4 WNW 48 63 26 34 991.4 991.4 0.0
01/10:58am 15.4 4.5 1.4 38 6.1 WNW 48 61 26 33 991.5 991.5 0.0
01/10:30am 15.2 8.3 2.6 42 5.6 WNW 28 41 15 22 991.6 991.6 0.0
01/10:00am 14.4 5.3 1.7 42 5.6 W 39 59 21 32 991.4 991.4 0.0
01/09:30am 13.4 4.5 0.8 42 5.3 W 37 56 20 30 991.3 991.3 0.0
01/09:00am 13.7 6.0 3.6 50 4.6 W 33 52 18 28 991.3 991.3 3.0
01/08:58am 13.6 6.0 3.8 51 4.4 W 33 52 18 28 991.2 991.2 3.2
01/08:30am 14.0 6.7 4.3 52 4.5 W 32 43 17 23 991.2 991.2 -
01/08:00am 14.1 6.4 5.3 55 4.2 W 35 48 19 26 991.0 991.0 -
01/07:52am 14.3 5.9 5.8 56 4.0 WNW 39 48 21 26 990.6 990.6 -
01/07:30am 14.0 9.3 9.4 74 2.4 NW 24 33 13 18 990.0 990.0 -
01/07:00am 13.2 10.1 10.3 82 1.5 NNW 17 26 9 14 989.2 989.2 3.2
01/06:30am 12.9 8.9 10.4 85 1.3 N 22 30 12 16 988.8 988.8 -
01/06:00am 13.1 9.5 10.4 84 1.4 N 20 30 11 16 989.1 989.1 -
01/05:30am 13.0 10.5 10.9 87 1.1 N 15 20 8 11 989.6 989.6 -
01/05:00am 13.2 10.6 10.7 85 1.3 N 15 22 8 12 989.4 989.4 1.6
01/04:30am 13.6 10.5 10.4 81 1.7 NNW 17 24 9 13 989.8 989.8 -
01/04:00am 14.8 9.5 9.8 72 2.6 NNW 28 37 15 20 991.1 991.1 -
01/03:30am 17.8 9.9 6.1 46 5.7 NW 37 52 20 28 990.6 990.6 -
01/03:17am 18.3 11.9 5.0 41 6.4 NNW 28 46 15 25 990.4 990.4 -
01/03:00am 18.2 14.3 6.9 47 5.7 NW 17 26 9 14 990.0 990.0 0.0
01/02:30am 16.7 13.4 8.1 57 4.4 NNW 15 20 8 11 990.3 990.3 -
01/02:00am 16.7 12.1 8.1 57 4.4 N 22 33 12 18 990.2 990.2 0.0
01/01:30am 17.4 11.9 7.6 52 5.0 N 26 39 14 21 990.8 990.8 0.0
01/01:00am 17.7 12.5 7.3 50 5.3 N 24 35 13 19 991.3 991.3 0.0
01/12:42am 17.8 11.9 7.4 50 5.2 N 28 46 15 25 991.5 991.5 0.0
01/12:30am 17.6 12.5 7.6 52 5.1 N 24 37 13 20 991.5 991.5 0.0
 
Date/Time
EDT
Temp
°C
App
Temp
°C
Dew
Point
Rel
Hum
%
Delta-T
°C
Wind Press
QNH
hPa
Press
MSL
hPa
Rain
since 9 am
mm
Dir
 
Spd
km/h
Gust
km/h
Spd
kts
Gust
kts
31/11:47pm 18.4 12.0 7.0 47 5.7 N 30 50 16 27 992.2 992.2 0.0
31/11:30pm 18.1 12.8 6.8 47 5.6 N 24 35 13 19 992.5 992.5 0.0
31/11:00pm 18.6 13.5 6.2 44 6.2 N 22 32 12 17 992.6 992.6 0.0
31/10:30pm 18.2 12.8 6.4 46 5.8 N 24 35 13 19 993.6 993.6 0.0
31/10:00pm 18.4 12.5 5.6 43 6.3 N 26 35 14 19 994.0 994.0 0.0
31/09:30pm 17.9 13.1 5.7 44 5.9 N 20 35 11 19 994.6 994.6 0.0
31/09:00pm 17.9 12.5 6.2 46 5.8 N 24 35 13 19 994.6 994.6 0.0
31/08:30pm 18.3 12.9 6.5 46 5.9 N 24 37 13 20 994.6 994.6 0.0
31/08:00pm 18.7 12.8 7.3 47 5.8 N 28 39 15 21 994.9 994.9 0.0
31/07:30pm 19.0 14.0 8.0 49 5.7 N 24 37 13 20 994.6 994.6 0.0
31/07:00pm 19.7 14.4 8.5 48 5.9 N 26 35 14 19 994.9 994.9 0.0
31/06:30pm 20.9 16.9 8.9 46 6.3 N 20 28 11 15 995.3 995.3 0.0
31/06:00pm 21.5 17.6 9.5 46 6.5 N 20 32 11 17 995.8 995.8 0.0
31/05:30pm 21.6 18.5 10.3 48 6.2 N 17 26 9 14 996.1 996.1 0.0
31/05:00pm 23.0 19.2 9.9 43 7.2 NW 20 30 11 16 996.9 996.9 0.0
31/04:30pm 21.2 18.1 10.2 49 6.0 NNW 17 28 9 15 997.7 997.7 0.0
31/04:00pm 20.5 16.8 10.0 51 5.7 NNW 20 33 11 18 998.3 998.3 0.0
31/03:30pm 20.0 16.5 10.2 53 5.3 NNW 19 28 10 15 999.2 999.2 0.0
31/03:00pm 19.6 16.8 9.9 53 5.2 N 15 26 8 14 999.8 999.8 0.0
31/02:30pm 19.4 14.6 8.8 50 5.5 NNW 24 33 13 18 1000.3 1000.3 0.0
31/02:00pm 19.9 16.1 8.9 49 5.8 NNW 19 30 10 16 1000.4 1000.4 0.0
31/01:30pm 18.7 14.0 7.6 48 5.6 NNW 22 30 12 16 1000.6 1000.6 0.0
31/01:00pm 18.6 15.0 8.4 51 5.3 N 17 28 9 15 1000.8 1000.8 0.0
31/12:30pm 17.7 13.3 7.2 50 5.3 NNW 20 32 11 17 1001.7 1001.7 0.0
31/12:00pm 17.4 13.2 7.3 51 5.1 NNW 19 30 10 16 1001.8 1001.8 0.0
31/11:30am 17.0 13.1 7.2 52 4.9 N 17 28 9 15 1002.3 1002.3 0.0
31/11:00am 17.1 13.2 6.9 51 5.1 N 17 24 9 13 1003.0 1003.0 0.0
31/10:30am 15.7 11.2 6.0 52 4.7 N 19 28 10 15 1003.5 1003.5 0.0
31/10:00am 15.4 11.8 6.6 55 4.3 N 15 22 8 12 1004.2 1004.2 0.0
31/09:30am 14.8 10.6 5.6 54 4.4 N 17 26 9 14 1004.1 1004.1 0.0
31/09:00am 14.4 9.6 5.8 56 4.1 N 20 28 11 15 1004.5 1004.5 0.0
31/08:30am 14.7 10.5 5.5 54 4.4 N 17 26 9 14 1004.6 1004.6 0.0
31/08:00am 14.1 10.4 6.5 60 3.7 N 15 20 8 11 1005.2 1005.2 0.0
31/07:30am 13.0 9.3 6.3 64 3.2 NNW 15 22 8 12 1005.2 1005.2 0.0
31/07:00am 12.5 9.1 5.9 64 3.1 NNW 13 17 7 9 1005.3 1005.3 0.0
31/06:30am 12.2 8.4 5.8 65 3.0 NNW 15 20 8 11 1005.2 1005.2 0.0
31/06:00am 11.3 7.7 6.7 73 2.2 N 15 19 8 10 1005.4 1005.4 0.0
31/05:30am 12.1 8.8 6.2 67 2.8 NNW 13 17 7 9 1005.2 1005.2 0.0
31/05:00am 12.7 8.5 5.7 62 3.3 NNW 17 22 9 12 1005.4 1005.4 0.0
31/04:30am 12.1 8.9 6.7 69 2.6 NNW 13 17 7 9 1005.7 1005.7 0.0
31/04:00am 10.8 8.5 7.5 80 1.6 WNW 9 11 5 6 1006.1 1006.1 0.0
31/03:30am 10.7 8.8 7.4 80 1.6 W 7 9 4 5 1006.3 1006.3 0.0
31/03:00am 10.0 8.0 7.1 82 1.4 WNW 7 9 4 5 1006.5 1006.5 0.0
31/02:30am 10.5 7.7 7.1 79 1.6 NW 11 13 6 7 1006.9 1006.9 0.0
31/02:00am 10.8 7.8 7.5 80 1.6 NNW 13 15 7 8 1007.1 1007.1 0.0
31/01:30am 11.0 7.9 7.3 78 1.8 NNW 13 17 7 9 1007.5 1007.5 0.0
31/01:00am 9.8 7.2 7.7 87 1.0 NNW 11 17 6 9 1008.0 1008.0 0.0
31/12:30am 11.1 8.5 7.8 80 1.6 NNW 11 15 6 8 1008.3 1008.3 0.0
31/12:00am 11.8 9.2 7.7 76 2.0 N 11 13 6 7 1008.5 1008.5 0.0
 
Date/Time
EDT
Temp
°C
App
Temp
°C
Dew
Point
Rel
Hum
%
Delta-T
°C
Wind Press
QNH
hPa
Press
MSL
hPa
Rain
since 9 am
mm
Dir
 
Spd
km/h
Gust
km/h
Spd
kts
Gust
kts
30/11:30pm 11.4 9.7 7.7 78 1.8 N 6 9 3 5 1008.6 1008.6 0.0
30/11:00pm 12.2 9.9 7.5 73 2.3 NNW 9 13 5 7 1008.9 1008.9 0.0
30/10:30pm 12.1 10.1 7.1 71 2.4 NNW 7 11 4 6 1009.1 1009.1 0.0
30/10:00pm 12.2 9.4 6.8 69 2.6 N 11 17 6 9 1009.1 1009.1 0.0
30/09:30pm 12.7 9.3 5.9 63 3.2 NNE 13 17 7 9 1009.0 1009.0 0.0
30/09:00pm 12.6 9.0 6.8 68 2.8 NNW 15 19 8 10 1009.1 1009.1 0.0
30/08:30pm 13.9 8.9 3.8 50 4.6 NW 19 28 10 15 1008.7 1008.7 0.0
30/08:00pm 14.0 10.3 4.2 51 4.5 NW 13 20 7 11 1008.5 1008.5 0.0
30/07:30pm 14.5 10.0 4.1 49 4.8 W 17 24 9 13 1008.4 1008.4 0.0
30/07:00pm 14.7 11.8 4.9 52 4.6 NW 9 17 5 9 1008.2 1008.2 0.0
30/06:30pm 14.7 10.8 5.4 53 4.4 WNW 15 20 8 11 1008.0 1008.0 0.0
30/06:00pm 15.2 9.0 4.5 49 5.0 W 26 32 14 17 1007.9 1007.9 0.0
30/05:30pm 15.7 11.6 4.4 47 5.3 WSW 15 19 8 10 1007.7 1007.7 0.0
30/05:00pm 14.9 11.9 7.7 62 3.6 SSE 13 15 7 8 1007.7 1007.7 0.0
30/04:30pm 15.9 13.5 8.7 62 3.7 SE 11 19 6 10 1007.6 1007.6 0.0
30/04:00pm 15.4 12.2 8.5 63 3.5 ESE 15 22 8 12 1007.5 1007.5 0.0
30/03:30pm 15.0 12.4 9.4 69 2.9 E 13 20 7 11 1007.6 1007.6 0.0
30/03:00pm 13.9 11.7 9.4 74 2.3 SE 11 17 6 9 1007.3 1007.3 0.0
30/02:30pm 13.3 10.0 9.6 78 1.9 SSE 17 26 9 14 1007.2 1007.2 0.0
30/02:00pm 13.6 10.3 9.7 77 2.0 SE 17 24 9 13 1007.1 1007.1 0.0
30/01:30pm 13.2 9.2 9.1 76 2.1 SE 20 28 11 15 1007.1 1007.1 0.0
30/01:00pm 13.9 10.2 10.1 78 2.0 SE 20 28 11 15 1007.1 1007.1 0.0
30/12:30pm 13.4 9.4 10.3 81 1.6 SE 22 30 12 16 1007.2 1007.2 0.0
30/12:00pm 15.0 12.0 10.7 75 2.3 SSE 17 22 9 12 1007.3 1007.3 0.0
30/11:30am 14.9 11.2 9.5 70 2.8 SSE 19 26 10 14 1007.6 1007.6 0.0
30/11:00am 16.5 12.0 6.8 52 4.8 W 20 28 11 15 1007.3 1007.3 0.0
30/10:30am 15.7 9.8 6.0 52 4.7 WNW 26 35 14 19 1007.3 1007.3 0.0
30/10:00am 15.3 10.5 5.5 52 4.7 WNW 20 28 11 15 1007.2 1007.2 0.0
30/09:30am 15.3 10.1 5.7 52 4.6 WNW 22 33 12 18 1007.2 1007.2 0.0
30/09:00am 14.4 9.7 5.3 54 4.3 NW 19 30 10 16 1007.3 1007.3 0.2
30/08:30am 13.7 10.5 6.9 63 3.3 N 13 19 7 10 1007.4 1007.4 0.2
30/08:00am 12.8 10.0 6.8 67 2.9 NNW 11 20 6 11 1007.4 1007.4 0.2
30/07:30am 12.4 10.0 7.0 69 2.6 N 9 13 5 7 1007.2 1007.2 0.2
30/07:00am 12.0 10.0 7.0 71 2.4 N 7 15 4 8 1006.9 1006.9 0.2
30/06:30am 12.0 7.4 6.3 68 2.7 NNW 20 30 11 16 1005.9 1005.9 0.2
30/06:00am 12.0 7.3 6.1 67 2.8 NW 20 28 11 15 1006.3 1006.3 0.2
30/05:30am 11.8 7.3 6.3 69 2.6 NNW 19 24 10 13 1006.2 1006.2 0.2
30/05:00am 11.7 7.6 6.0 68 2.7 NNW 17 22 9 12 1006.2 1006.2 0.2
30/04:30am 11.5 7.7 6.0 69 2.6 NNW 15 20 8 11 1006.3 1006.3 0.2
30/04:00am 11.5 7.0 6.0 69 2.6 NNW 19 26 10 14 1006.5 1006.5 0.2
30/03:30am 11.6 7.5 6.3 70 2.5 NNW 17 24 9 13 1006.5 1006.5 0.2
30/03:00am 12.1 8.0 6.4 68 2.7 N 17 26 9 14 1006.5 1006.5 0.2
30/02:30am 12.8 7.3 5.8 62 3.3 NNW 24 35 13 19 1006.4 1006.4 0.2
30/02:00am 13.1 8.4 5.9 61 3.4 NNW 20 33 11 18 1006.9 1006.9 0.2
30/01:30am 13.0 7.8 5.6 61 3.5 NNW 22 30 12 16 1006.7 1006.7 0.2
30/01:00am 13.0 7.5 5.8 61 3.4 NNW 24 32 13 17 1006.6 1006.6 0.2
30/12:30am 13.0 7.5 6.1 63 3.3 NNW 24 33 13 18 1007.0 1007.0 0.2
30/12:00am 13.0 8.4 6.3 64 3.2 NW 20 28 11 15 1007.0 1007.0 0.2
 
Date/Time
EDT
Temp
°C
App
Temp
°C
Dew
Point
Rel
Hum
%
Delta-T
°C
Wind Press
QNH
hPa
Press
MSL
hPa
Rain
since 9 am
mm
Dir
 
Spd
km/h
Gust
km/h
Spd
kts
Gust
kts
29/11:30pm 13.5 8.0 5.9 60 3.6 NNW 24 39 13 21 1007.0 1007.0 0.2
29/11:00pm 13.9 8.7 5.7 57 3.9 NNW 22 33 12 18 1007.0 1007.0 0.2
29/10:30pm 13.5 8.8 5.9 60 3.6 NNW 20 30 11 16 1007.1 1007.1 0.2
29/10:00pm 13.6 8.0 5.6 58 3.8 NNW 24 33 13 18 1007.1 1007.1 0.2
29/09:30pm 13.5 8.3 5.4 58 3.8 NNW 22 33 12 18 1007.1 1007.1 0.2
29/09:00pm 13.6 7.5 5.0 56 4.0 NNW 26 39 14 21 1006.8 1006.8 0.2
29/08:30pm 14.4 8.1 5.6 55 4.2 NNW 28 37 15 20 1006.7 1006.7 0.2
29/08:00pm 14.5 9.0 6.0 56 4.1 NNW 24 35 13 19 1006.4 1006.4 0.2
29/07:30pm 15.4 9.4 5.1 50 4.9 NNW 26 37 14 20 1006.0 1006.0 0.2
29/07:00pm 15.9 9.5 5.2 49 5.1 NNW 28 35 15 19 1005.8 1005.8 0.2
29/06:30pm 17.0 9.1 4.6 44 5.9 NW 35 52 19 28 1005.6 1005.6 0.2
29/06:00pm 17.8 8.3 4.1 40 6.5 NW 43 70 23 38 1005.3 1005.3 0.2
29/05:38pm 18.1 9.7 3.9 39 6.7 WNW 37 56 20 30 1005.4 1005.4 0.2
29/05:30pm 18.2 9.4 3.5 37 6.9 WNW 39 48 21 26 1005.5 1005.5 0.2
29/05:04pm 18.7 12.2 4.6 39 6.8 WNW 28 52 15 28 1005.8 1005.8 0.2
29/05:00pm 18.6 12.3 3.5 36 7.1 WNW 26 44 14 24 1005.8 1005.8 0.2
29/04:30pm 19.2 11.8 3.9 36 7.3 WNW 32 48 17 26 1005.7 1005.7 0.2
29/04:00pm 18.3 10.3 3.7 38 6.9 WNW 35 57 19 31 1005.8 1005.8 0.2
29/03:47pm 17.8 10.3 3.5 38 6.7 WNW 32 52 17 28 1005.9 1005.9 0.2
29/03:30pm 17.5 10.5 4.2 41 6.3 WNW 30 43 16 23 1006.0 1006.0 0.2
29/03:12pm 17.6 10.9 3.8 40 6.5 WNW 28 50 15 27 1006.2 1006.2 0.2

Other Formats:

Comma delimited format used in spreadsheet applications
http://www.bom.gov.au/fwo/IDT60801/IDT60801.94975.axf

JavaScript Object Notation format (JSON) in row-major order
http://www.bom.gov.au/fwo/IDT60801/IDT60801.94975.json